createdAt,value
2018-05-03T00:00:56.693Z,1006.10
2018-05-03T00:01:56.783Z,1006.10
2018-05-03T00:02:56.708Z,1006.11
2018-05-03T00:03:56.761Z,1006.07
2018-05-03T00:04:56.739Z,1006.06
2018-05-03T00:05:56.733Z,1006.02
2018-05-03T00:06:56.793Z,1006.04
2018-05-03T00:07:56.766Z,1006.02
2018-05-03T00:08:56.767Z,1006.03
2018-05-03T00:09:56.796Z,1006.04
2018-05-03T00:10:56.851Z,1006.03
2018-05-03T00:11:56.803Z,1006.00
2018-05-03T00:12:56.817Z,1006.03
2018-05-03T00:13:56.830Z,1006.06
2018-05-03T00:14:56.838Z,1006.10
2018-05-03T00:15:56.851Z,1006.05
2018-05-03T00:16:56.892Z,1006.00
2018-05-03T00:17:56.865Z,1005.97
2018-05-03T00:18:56.892Z,1006.00
2018-05-03T00:19:56.885Z,1005.95
2018-05-03T00:20:56.894Z,1005.91
2018-05-03T00:21:56.940Z,1005.90
2018-05-03T00:22:56.922Z,1005.85
2018-05-03T00:23:56.962Z,1005.85
2018-05-03T00:24:56.980Z,1005.88
2018-05-03T00:25:56.952Z,1005.92
2018-05-03T00:26:56.964Z,1005.94
2018-05-03T00:27:56.974Z,1005.99
2018-05-03T00:28:56.988Z,1006.06
2018-05-03T00:29:57.057Z,1006.07
2018-05-03T00:30:57.009Z,1006.07
2018-05-03T00:31:57.021Z,1006.11
2018-05-03T00:32:57.028Z,1006.12
2018-05-03T00:33:57.035Z,1006.15
2018-05-03T00:34:57.084Z,1006.12
2018-05-03T00:35:57.072Z,1006.20
2018-05-03T00:36:57.131Z,1006.14
2018-05-03T00:37:57.079Z,1006.10
2018-05-03T00:38:57.088Z,1006.12
2018-05-03T00:39:57.103Z,1006.06
2018-05-03T00:40:57.129Z,1006.04
2018-05-03T00:41:57.125Z,1006.03
2018-05-03T00:42:57.187Z,1006.01
2018-05-03T00:43:57.144Z,1006.03
2018-05-03T00:44:57.155Z,1006.06
2018-05-03T00:45:57.166Z,1006.04
2018-05-03T00:46:57.176Z,1006.08
2018-05-03T00:47:57.250Z,1006.11
2018-05-03T00:48:57.314Z,1006.11
2018-05-03T00:49:57.213Z,1006.12
2018-05-03T00:50:57.224Z,1006.13
2018-05-03T00:51:57.304Z,1006.14
2018-05-03T00:52:57.242Z,1006.12
2018-05-03T00:53:57.256Z,1006.12
2018-05-03T00:54:57.262Z,1006.13
2018-05-03T00:55:57.292Z,1006.17
2018-05-03T00:56:57.336Z,1006.17
2018-05-03T00:57:57.295Z,1006.17
2018-05-03T00:58:57.342Z,1006.21
2018-05-03T00:59:57.317Z,1006.15
2018-05-03T01:00:57.343Z,1006.15
2018-05-03T01:01:57.374Z,1006.14
2018-05-03T01:02:57.386Z,1006.15
2018-05-03T01:03:57.367Z,1006.16
2018-05-03T01:04:57.375Z,1006.15
2018-05-03T01:05:57.383Z,1006.17
2018-05-03T01:06:57.430Z,1006.22
2018-05-03T01:07:57.411Z,1006.22
2018-05-03T01:08:57.415Z,1006.24
2018-05-03T01:09:57.463Z,1006.21
2018-05-03T01:10:57.481Z,1006.21
2018-05-03T01:11:57.444Z,1006.22
2018-05-03T01:12:57.478Z,1006.23
2018-05-03T01:13:57.472Z,1006.21
2018-05-03T01:14:57.513Z,1006.27
2018-05-03T01:15:57.500Z,1006.25
2018-05-03T01:16:57.515Z,1006.25
2018-05-03T01:17:57.529Z,1006.24
2018-05-03T01:18:57.524Z,1006.24
2018-05-03T01:19:57.581Z,1006.26
2018-05-03T01:20:57.584Z,1006.32
2018-05-03T01:21:57.555Z,1006.31
2018-05-03T01:22:57.565Z,1006.30
2018-05-03T01:23:57.580Z,1006.31
2018-05-03T01:24:57.588Z,1006.35
2018-05-03T01:25:57.633Z,1006.36
2018-05-03T01:26:57.622Z,1006.36
2018-05-03T01:27:57.681Z,1006.36
2018-05-03T01:28:57.659Z,1006.41
2018-05-03T01:29:57.644Z,1006.47
2018-05-03T01:30:57.661Z,1006.47
2018-05-03T01:31:57.668Z,1006.44
2018-05-03T01:32:57.675Z,1006.46
2018-05-03T01:33:57.725Z,1006.42
2018-05-03T01:34:57.695Z,1006.44
2018-05-03T01:35:57.709Z,1006.42
2018-05-03T01:36:57.760Z,1006.43
2018-05-03T01:37:57.728Z,1006.38
2018-05-03T01:38:57.771Z,1006.37
2018-05-03T01:39:57.794Z,1006.33
2018-05-03T01:40:57.776Z,1006.32
2018-05-03T01:41:57.789Z,1006.33
2018-05-03T01:42:57.797Z,1006.31
2018-05-03T01:43:57.850Z,1006.30
2018-05-03T01:44:57.815Z,1006.32
2018-05-03T01:45:57.829Z,1006.31
2018-05-03T01:46:57.824Z,1006.29
2018-05-03T01:47:57.835Z,1006.25
2018-05-03T01:48:57.897Z,1006.25
2018-05-03T01:49:57.909Z,1006.29
2018-05-03T01:50:57.885Z,1006.30
2018-05-03T01:51:57.892Z,1006.31
2018-05-03T01:52:57.898Z,1006.34
2018-05-03T01:53:57.923Z,1006.33
2018-05-03T01:54:57.962Z,1006.33
2018-05-03T01:55:57.920Z,1006.41
2018-05-03T01:56:57.935Z,1006.40
2018-05-03T01:57:57.948Z,1006.39
2018-05-03T01:58:57.964Z,1006.37
2018-05-03T01:59:58.016Z,1006.38
2018-05-03T02:00:57.987Z,1006.37
2018-05-03T02:01:58.022Z,1006.35
2018-05-03T02:02:58.014Z,1006.36
2018-05-03T02:03:58.021Z,1006.32
2018-05-03T02:04:58.047Z,1006.30
2018-05-03T02:05:58.040Z,1006.28
2018-05-03T02:06:58.083Z,1006.27
2018-05-03T02:07:58.063Z,1006.32
2018-05-03T02:08:58.062Z,1006.30
2018-05-03T02:09:58.075Z,1006.30
2018-05-03T02:10:58.084Z,1006.27
2018-05-03T02:11:58.160Z,1006.27
2018-05-03T02:12:58.120Z,1006.26
2018-05-03T02:13:58.126Z,1006.26
2018-05-03T02:14:58.138Z,1006.24
2018-05-03T02:15:58.231Z,1006.20
2018-05-03T02:16:58.162Z,1006.23
2018-05-03T02:17:58.216Z,1006.21
2018-05-03T02:18:58.181Z,1006.19
2018-05-03T02:19:58.182Z,1006.19
2018-05-03T02:20:58.211Z,1006.16
2018-05-03T02:21:58.213Z,1006.18
2018-05-03T02:22:58.276Z,1006.19
2018-05-03T02:23:58.243Z,1006.17
2018-05-03T02:24:58.277Z,1006.21
2018-05-03T02:25:58.255Z,1006.25
2018-05-03T02:26:58.280Z,1006.19
2018-05-03T02:27:58.314Z,1006.19
2018-05-03T02:28:58.292Z,1006.17
2018-05-03T02:29:58.354Z,1006.17
2018-05-03T02:30:58.298Z,1006.16
2018-05-03T02:31:58.339Z,1006.11
2018-05-03T02:32:58.329Z,1006.09
2018-05-03T02:33:58.338Z,1006.08
2018-05-03T02:34:58.340Z,1006.04
2018-05-03T02:35:58.418Z,1006.06
2018-05-03T02:36:58.361Z,1006.06
2018-05-03T02:37:58.381Z,1006.06
2018-05-03T02:38:58.433Z,1006.01
2018-05-03T02:39:58.405Z,1006.01
2018-05-03T02:40:58.427Z,1005.99
2018-05-03T02:41:58.415Z,1006.01
2018-05-03T02:42:58.468Z,1006.05
2018-05-03T02:43:58.453Z,1006.00
2018-05-03T02:44:58.478Z,1005.97
2018-05-03T02:45:58.483Z,1005.99
2018-05-03T02:46:58.482Z,1006.00
2018-05-03T02:47:58.526Z,1006.04
2018-05-03T02:48:58.490Z,1006.01
2018-05-03T02:49:58.513Z,1006.04
2018-05-03T02:50:58.515Z,1006.08
2018-05-03T02:51:58.584Z,1006.13
2018-05-03T02:52:58.572Z,1006.19
2018-05-03T02:53:58.554Z,1006.21
2018-05-03T02:54:58.564Z,1006.27
2018-05-03T02:55:58.600Z,1006.24
2018-05-03T02:56:58.584Z,1006.27
2018-05-03T02:57:58.618Z,1006.31
2018-05-03T02:58:58.609Z,1006.31
2018-05-03T02:59:58.615Z,1006.36
2018-05-03T03:00:58.634Z,1006.33
2018-05-03T03:01:58.632Z,1006.40
2018-05-03T03:02:58.692Z,1006.38
2018-05-03T03:03:58.650Z,1006.41
2018-05-03T03:04:58.660Z,1006.32
2018-05-03T03:05:58.722Z,1006.31
2018-05-03T03:06:58.708Z,1006.30
2018-05-03T03:07:58.695Z,1006.27
2018-05-03T03:08:58.712Z,1006.33
2018-05-03T03:09:58.726Z,1006.31
2018-05-03T03:10:58.787Z,1006.32
2018-05-03T03:11:58.747Z,1006.32
2018-05-03T03:12:58.765Z,1006.37
2018-05-03T03:13:58.822Z,1006.35
2018-05-03T03:14:58.765Z,1006.39
2018-05-03T03:15:58.815Z,1006.45
2018-05-03T03:16:58.803Z,1006.42
2018-05-03T03:17:58.818Z,1006.46
2018-05-03T03:18:58.856Z,1006.45
2018-05-03T03:19:58.820Z,1006.43
2018-05-03T03:20:58.877Z,1006.44
2018-05-03T03:21:58.917Z,1006.45
2018-05-03T03:22:58.862Z,1006.47
2018-05-03T03:23:58.868Z,1006.49
2018-05-03T03:24:58.886Z,1006.46
2018-05-03T03:25:58.918Z,1006.44
2018-05-03T03:26:58.903Z,1006.41
2018-05-03T03:27:58.906Z,1006.43
2018-05-03T03:28:58.984Z,1006.44
2018-05-03T03:29:58.937Z,1006.40
2018-05-03T03:30:58.937Z,1006.47
2018-05-03T03:31:58.957Z,1006.49
2018-05-03T03:32:58.958Z,1006.51
2018-05-03T03:33:58.999Z,1006.49
2018-05-03T03:34:58.979Z,1006.50
2018-05-03T03:35:59.007Z,1006.51
2018-05-03T03:36:59.070Z,1006.51
2018-05-03T03:37:59.032Z,1006.51
2018-05-03T03:38:59.027Z,1006.54
2018-05-03T03:39:59.054Z,1006.57
2018-05-03T03:40:59.058Z,1006.60
2018-05-03T03:41:59.069Z,1006.60
2018-05-03T03:42:59.110Z,1006.64
2018-05-03T03:43:59.089Z,1006.68
2018-05-03T03:44:59.089Z,1006.69
2018-05-03T03:45:59.105Z,1006.70
2018-05-03T03:46:59.139Z,1006.70
2018-05-03T03:47:59.169Z,1006.70
2018-05-03T03:48:59.156Z,1006.70
2018-05-03T03:49:59.155Z,1006.76
2018-05-03T03:50:59.182Z,1006.71
2018-05-03T03:51:59.164Z,1006.75
2018-05-03T03:52:59.184Z,1006.74
2018-05-03T03:53:59.220Z,1006.75
2018-05-03T03:54:59.222Z,1006.71
2018-05-03T03:55:59.205Z,1006.74
2018-05-03T03:56:59.230Z,1006.72
2018-05-03T03:57:59.290Z,1006.73
2018-05-03T03:58:59.256Z,1006.76
2018-05-03T03:59:59.244Z,1006.82
2018-05-03T04:00:59.271Z,1006.80
2018-05-03T04:01:59.266Z,1006.82
2018-05-03T04:02:59.300Z,1006.85
2018-05-03T04:03:59.313Z,1006.86
2018-05-03T04:04:59.344Z,1006.91
2018-05-03T04:05:59.317Z,1006.84
2018-05-03T04:06:59.327Z,1006.87
2018-05-03T04:07:59.352Z,1006.83
2018-05-03T04:08:59.351Z,1006.87
2018-05-03T04:09:59.375Z,1006.93
2018-05-03T04:10:59.406Z,1006.93
2018-05-03T04:11:59.384Z,1007.02
2018-05-03T04:12:59.396Z,1006.97
2018-05-03T04:13:59.395Z,1006.94
2018-05-03T04:14:59.500Z,1006.93
2018-05-03T04:15:59.456Z,1006.91
2018-05-03T04:16:59.479Z,1006.88
2018-05-03T04:17:59.437Z,1006.82
2018-05-03T04:18:59.451Z,1006.84
2018-05-03T04:19:59.483Z,1006.79
2018-05-03T04:20:59.481Z,1006.78
2018-05-03T04:21:59.509Z,1006.77
2018-05-03T04:22:59.527Z,1006.79
2018-05-03T04:23:59.516Z,1006.82
2018-05-03T04:24:59.525Z,1006.83
2018-05-03T04:25:59.535Z,1006.82
2018-05-03T04:26:59.544Z,1006.87
2018-05-03T04:27:59.574Z,1006.89
2018-05-03T04:28:59.553Z,1006.93
2018-05-03T04:29:59.564Z,1006.89
2018-05-03T04:30:59.610Z,1006.81
2018-05-03T04:31:59.596Z,1006.77
2018-05-03T04:32:59.621Z,1006.74
2018-05-03T04:33:59.613Z,1006.75
2018-05-03T04:34:59.630Z,1006.78
2018-05-03T04:35:59.640Z,1006.79
2018-05-03T04:36:59.655Z,1006.84
2018-05-03T04:37:59.667Z,1006.82
2018-05-03T04:38:59.667Z,1006.82
2018-05-03T04:39:59.680Z,1006.79
2018-05-03T04:40:59.707Z,1006.76
2018-05-03T04:41:59.735Z,1006.70
2018-05-03T04:42:59.712Z,1006.68
2018-05-03T04:43:59.732Z,1006.64
2018-05-03T04:44:59.737Z,1006.62
2018-05-03T04:45:59.740Z,1006.63
2018-05-03T04:46:59.820Z,1006.62
2018-05-03T04:47:59.755Z,1006.60
2018-05-03T04:48:59.794Z,1006.67
2018-05-03T04:49:59.787Z,1006.60
2018-05-03T04:50:59.792Z,1006.70
2018-05-03T04:51:59.835Z,1006.69
2018-05-03T04:52:59.813Z,1006.72
2018-05-03T04:53:59.864Z,1006.72
2018-05-03T04:54:59.855Z,1006.76
2018-05-03T04:55:59.851Z,1006.78
2018-05-03T04:56:59.866Z,1006.82
2018-05-03T04:57:59.885Z,1006.82
2018-05-03T04:58:59.924Z,1006.83
2018-05-03T04:59:59.906Z,1006.85
2018-05-03T05:00:59.908Z,1006.87
2018-05-03T05:01:59.915Z,1006.88
2018-05-03T05:02:59.919Z,1006.89
2018-05-03T05:03:59.989Z,1006.84
2018-05-03T05:04:59.939Z,1006.85
2018-05-03T05:05:59.949Z,1006.89
2018-05-03T05:06:59.981Z,1006.89
2018-05-03T05:08:00.004Z,1006.92
2018-05-03T05:08:59.978Z,1006.94
2018-05-03T05:10:00.003Z,1006.92
2018-05-03T05:11:00.014Z,1006.90
2018-05-03T05:12:00.035Z,1006.82
2018-05-03T05:13:00.079Z,1006.83
2018-05-03T05:14:00.045Z,1006.78
2018-05-03T05:15:00.056Z,1006.81
2018-05-03T05:16:00.057Z,1006.81
2018-05-03T05:17:00.070Z,1006.80
2018-05-03T05:18:00.147Z,1006.78
2018-05-03T05:19:00.099Z,1006.75
2018-05-03T05:20:00.119Z,1006.79
2018-05-03T05:21:00.113Z,1006.83
2018-05-03T05:22:00.135Z,1006.78
2018-05-03T05:23:00.163Z,1006.87
2018-05-03T05:24:00.150Z,1006.91
2018-05-03T05:25:00.176Z,1006.93
2018-05-03T05:26:00.186Z,1006.95
2018-05-03T05:27:00.194Z,1006.98
2018-05-03T05:28:00.228Z,1006.98
2018-05-03T05:29:00.231Z,1007.00
2018-05-03T05:30:00.218Z,1007.03
2018-05-03T05:31:00.243Z,1007.00
2018-05-03T05:32:00.233Z,1007.03
2018-05-03T05:33:00.300Z,1007.02
2018-05-03T05:34:00.260Z,1007.00
2018-05-03T05:35:00.284Z,1007.03
2018-05-03T05:36:00.291Z,1006.99
2018-05-03T05:37:00.291Z,1006.98
2018-05-03T05:38:00.355Z,1006.91
2018-05-03T05:39:00.337Z,1006.86
2018-05-03T05:40:00.323Z,1006.86
2018-05-03T05:41:00.344Z,1006.86
2018-05-03T05:42:00.355Z,1006.84
2018-05-03T05:43:00.397Z,1006.92
2018-05-03T05:44:00.390Z,1006.98
2018-05-03T05:45:00.394Z,1007.03
2018-05-03T05:46:00.456Z,1007.01
2018-05-03T05:47:00.427Z,1007.02
2018-05-03T05:48:00.433Z,1007.05
2018-05-03T05:49:00.445Z,1007.06
2018-05-03T05:50:00.440Z,1007.09
2018-05-03T05:51:00.535Z,1007.08
2018-05-03T05:52:00.494Z,1007.10
2018-05-03T05:53:00.485Z,1007.12
2018-05-03T05:54:00.491Z,1007.10
2018-05-03T05:55:00.518Z,1007.14
2018-05-03T05:56:00.504Z,1007.12
2018-05-03T05:57:00.562Z,1007.09
2018-05-03T05:58:00.537Z,1007.08
2018-05-03T05:59:00.543Z,1007.06
2018-05-03T06:00:00.561Z,1007.06
2018-05-03T06:01:00.576Z,1007.05
2018-05-03T06:02:00.621Z,1007.06
2018-05-03T06:03:00.585Z,1007.07
2018-05-03T06:04:00.601Z,1007.20
2018-05-03T06:05:00.673Z,1007.30
2018-05-03T06:06:00.637Z,1007.17
2018-05-03T06:07:00.633Z,1007.15
2018-05-03T06:08:00.671Z,1007.22
2018-05-03T06:09:00.663Z,1007.23
2018-05-03T06:10:00.693Z,1007.26
2018-05-03T06:11:00.685Z,1007.32
2018-05-03T06:12:00.700Z,1007.31
2018-05-03T06:13:00.755Z,1007.28
2018-05-03T06:14:00.716Z,1007.24
2018-05-03T06:15:00.733Z,1007.26
2018-05-03T06:16:00.746Z,1007.18
2018-05-03T06:17:00.754Z,1007.16
2018-05-03T06:18:00.838Z,1007.21
2018-05-03T06:19:00.793Z,1007.27
2018-05-03T06:20:00.797Z,1007.30
2018-05-03T06:21:00.806Z,1007.43
2018-05-03T06:22:00.815Z,1007.49
2018-05-03T06:23:00.844Z,1007.38
2018-05-03T06:24:00.868Z,1007.41
2018-05-03T06:25:00.855Z,1007.40
2018-05-03T06:26:00.871Z,1007.41
2018-05-03T06:27:00.868Z,1007.39
2018-05-03T06:28:00.915Z,1007.40
2018-05-03T06:29:00.923Z,1007.38
2018-05-03T06:30:00.920Z,1007.45
2018-05-03T06:31:00.931Z,1007.49
2018-05-03T06:32:01.026Z,1007.42
2018-05-03T06:33:01.025Z,1007.34
2018-05-03T06:34:00.956Z,1007.35
2018-05-03T06:35:01.002Z,1007.41
2018-05-03T06:36:00.989Z,1007.44
2018-05-03T06:37:01.004Z,1007.44
2018-05-03T06:38:01.021Z,1007.41
2018-05-03T06:39:01.086Z,1007.45
2018-05-03T06:40:01.077Z,1007.42
2018-05-03T06:41:01.046Z,1007.44
2018-05-03T06:42:01.057Z,1007.44
2018-05-03T06:43:01.130Z,1007.47
2018-05-03T06:44:01.079Z,1007.45
2018-05-03T06:45:01.219Z,1007.50
2018-05-03T06:46:01.123Z,1007.49
2018-05-03T06:47:01.119Z,1007.51
2018-05-03T06:48:01.205Z,1007.50
2018-05-03T06:49:01.142Z,1007.54
2018-05-03T06:50:01.182Z,1007.54
2018-05-03T06:51:01.163Z,1007.55
2018-05-03T06:52:01.180Z,1007.52
2018-05-03T06:53:01.213Z,1007.56
2018-05-03T06:54:01.196Z,1007.48
2018-05-03T06:55:01.202Z,1007.55
2018-05-03T06:56:01.228Z,1007.58
2018-05-03T06:57:01.279Z,1007.60
2018-05-03T06:58:01.255Z,1007.69
2018-05-03T06:59:01.267Z,1007.66
2018-05-03T07:00:01.267Z,1007.67
2018-05-03T07:01:01.300Z,1007.70
2018-05-03T07:02:01.426Z,1007.82
2018-05-03T07:03:01.353Z,1007.82
2018-05-03T07:04:01.424Z,1007.83
2018-05-03T07:05:01.332Z,1007.87
2018-05-03T07:06:01.331Z,1007.85
2018-05-03T07:07:01.365Z,1008.01
2018-05-03T07:08:01.399Z,1007.96
2018-05-03T07:09:01.376Z,1008.05
2018-05-03T07:10:01.420Z,1008.04
2018-05-03T07:11:01.390Z,1008.06
2018-05-03T07:12:01.416Z,1008.07
2018-05-03T07:13:01.445Z,1008.16
2018-05-03T07:14:01.427Z,1008.14
2018-05-03T07:15:01.476Z,1008.16
2018-05-03T07:16:01.492Z,1008.21
2018-05-03T07:17:01.529Z,1008.24
2018-05-03T07:18:01.489Z,1008.31
2018-05-03T07:19:01.512Z,1008.35
2018-05-03T07:20:01.503Z,1008.36
2018-05-03T07:21:01.538Z,1008.36
2018-05-03T07:22:01.572Z,1008.32
2018-05-03T07:23:01.530Z,1008.32
2018-05-03T07:24:01.561Z,1008.34
2018-05-03T07:25:01.605Z,1008.34
2018-05-03T07:26:01.589Z,1008.35
2018-05-03T07:27:01.584Z,1008.40
2018-05-03T07:28:01.610Z,1008.42
2018-05-03T07:29:01.611Z,1008.48
2018-05-03T07:30:01.667Z,1008.50
2018-05-03T07:31:01.653Z,1008.55
2018-05-03T07:32:01.642Z,1008.64
2018-05-03T07:33:01.684Z,1008.65
2018-05-03T07:34:01.696Z,1008.67
2018-05-03T07:35:01.681Z,1008.72
2018-05-03T07:36:01.693Z,1008.77
2018-05-03T07:37:01.730Z,1008.75
2018-05-03T07:38:01.712Z,1008.83
2018-05-03T07:39:01.736Z,1008.90
2018-05-03T07:40:01.785Z,1008.89
2018-05-03T07:41:01.804Z,1008.87
2018-05-03T07:42:01.761Z,1008.93
2018-05-03T07:43:01.768Z,1008.95
2018-05-03T07:44:01.794Z,1008.95
2018-05-03T07:45:01.879Z,1008.97
2018-05-03T07:46:01.817Z,1009.00
2018-05-03T07:47:01.856Z,1009.00
2018-05-03T07:48:01.840Z,1009.00
2018-05-03T07:49:01.864Z,1008.98
2018-05-03T07:50:01.858Z,1009.00
2018-05-03T07:51:01.875Z,1008.98
2018-05-03T07:52:01.932Z,1009.06
2018-05-03T07:53:01.891Z,1009.04
2018-05-03T07:54:01.904Z,1009.11
2018-05-03T07:55:01.921Z,1009.14
2018-05-03T07:56:01.962Z,1009.18
2018-05-03T07:57:01.958Z,1009.15
2018-05-03T07:58:01.998Z,1009.21
2018-05-03T07:59:01.969Z,1009.24
2018-05-03T08:00:01.991Z,1009.20
2018-05-03T08:01:02.006Z,1009.25
2018-05-03T08:02:02.100Z,1009.23
2018-05-03T08:03:02.178Z,1009.22
2018-05-03T08:04:02.020Z,1009.19
2018-05-03T08:05:02.027Z,1009.18
2018-05-03T08:06:02.039Z,1009.16
2018-05-03T08:07:02.073Z,1009.21
2018-05-03T08:08:02.080Z,1009.22
2018-05-03T08:09:02.164Z,1009.21
2018-05-03T08:10:02.101Z,1009.24
2018-05-03T08:11:02.121Z,1009.24
2018-05-03T08:12:02.110Z,1009.27
2018-05-03T08:13:02.138Z,1009.26
2018-05-03T08:14:02.177Z,1009.30
2018-05-03T08:15:02.161Z,1009.29
2018-05-03T08:16:02.173Z,1009.25
2018-05-03T08:17:02.248Z,1009.28
2018-05-03T08:18:02.260Z,1009.25
2018-05-03T08:19:02.223Z,1009.27
2018-05-03T08:20:02.252Z,1009.29
2018-05-03T08:21:02.230Z,1009.33
2018-05-03T08:22:02.241Z,1009.32
2018-05-03T08:23:02.249Z,1009.31
2018-05-03T08:24:02.258Z,1009.30
2018-05-03T08:25:02.313Z,1009.27
2018-05-03T08:26:02.290Z,1009.30
2018-05-03T08:27:02.289Z,1009.33
2018-05-03T08:28:02.301Z,1009.32
2018-05-03T08:29:02.339Z,1009.31
2018-05-03T08:30:02.386Z,1009.35
2018-05-03T08:31:02.370Z,1009.37
2018-05-03T08:32:02.354Z,1009.35
2018-05-03T08:33:02.422Z,1009.38
2018-05-03T08:34:02.380Z,1009.41
2018-05-03T08:35:02.397Z,1009.41
2018-05-03T08:36:02.406Z,1009.44
2018-05-03T08:37:02.408Z,1009.49
2018-05-03T08:38:02.455Z,1009.47
2018-05-03T08:39:02.441Z,1009.47
2018-05-03T08:40:02.455Z,1009.50
2018-05-03T08:41:02.462Z,1009.49
2018-05-03T08:42:02.541Z,1009.48
2018-05-03T08:43:02.481Z,1009.47
2018-05-03T08:44:02.518Z,1009.48
2018-05-03T08:45:02.503Z,1009.46
2018-05-03T08:46:02.520Z,1009.43
2018-05-03T08:47:02.580Z,1009.41
2018-05-03T08:48:02.644Z,1009.41
2018-05-03T08:49:02.597Z,1009.38
2018-05-03T08:50:02.572Z,1009.41
2018-05-03T08:51:02.576Z,1009.38
2018-05-03T08:52:02.605Z,1009.40
2018-05-03T08:53:02.669Z,1009.40
2018-05-03T08:54:02.617Z,1009.42
2018-05-03T08:55:02.645Z,1009.39
2018-05-03T08:56:02.657Z,1009.45
2018-05-03T08:57:02.646Z,1009.40
2018-05-03T08:58:02.703Z,1009.39
2018-05-03T08:59:02.695Z,1009.40
2018-05-03T09:00:02.703Z,1009.36
2018-05-03T09:01:02.721Z,1009.39
2018-05-03T09:02:02.722Z,1009.42
2018-05-03T09:03:02.782Z,1009.41
2018-05-03T09:04:02.748Z,1009.41
2018-05-03T09:05:02.754Z,1009.44
2018-05-03T09:06:02.781Z,1009.49
2018-05-03T09:07:02.768Z,1009.53
2018-05-03T09:08:02.826Z,1009.46
2018-05-03T09:09:02.831Z,1009.49
2018-05-03T09:10:02.807Z,1009.54
2018-05-03T09:11:02.842Z,1009.53
2018-05-03T09:12:02.828Z,1009.52
2018-05-03T09:13:02.878Z,1009.53
2018-05-03T09:14:02.874Z,1009.56
2018-05-03T09:15:02.887Z,1009.62
2018-05-03T09:16:02.874Z,1009.67
2018-05-03T09:17:02.899Z,1009.62
2018-05-03T09:18:02.914Z,1009.73
2018-05-03T09:19:02.970Z,1009.70
2018-05-03T09:20:02.936Z,1009.72
2018-05-03T09:21:02.937Z,1009.79
2018-05-03T09:22:02.950Z,1009.77
2018-05-03T09:23:02.956Z,1009.74
2018-05-03T09:24:03.010Z,1009.80
2018-05-03T09:25:02.986Z,1009.79
2018-05-03T09:26:03.005Z,1009.75
2018-05-03T09:27:03.023Z,1009.83
2018-05-03T09:28:03.035Z,1009.74
2018-05-03T09:29:03.060Z,1009.79
2018-05-03T09:30:03.044Z,1009.81
2018-05-03T09:31:03.062Z,1009.80
2018-05-03T09:32:03.125Z,1009.91
2018-05-03T09:33:03.082Z,1009.84
2018-05-03T09:34:03.101Z,1009.86
2018-05-03T09:35:03.122Z,1009.82
2018-05-03T09:36:03.113Z,1009.82
2018-05-03T09:37:03.170Z,1009.84
2018-05-03T09:38:03.138Z,1009.87
2018-05-03T09:39:03.227Z,1009.91
2018-05-03T09:40:03.172Z,1009.84
2018-05-03T09:41:03.179Z,1009.86
2018-05-03T09:42:03.199Z,1009.82
2018-05-03T09:43:03.251Z,1009.90
2018-05-03T09:44:03.214Z,1009.86
2018-05-03T09:45:03.249Z,1009.92
2018-05-03T09:46:03.261Z,1009.90
2018-05-03T09:47:03.251Z,1009.93
2018-05-03T09:48:03.267Z,1009.92
2018-05-03T09:49:03.278Z,1009.98
2018-05-03T09:50:03.352Z,1010.00
2018-05-03T09:51:03.303Z,1009.98
2018-05-03T09:52:03.313Z,1010.00
2018-05-03T09:53:03.345Z,1010.01
2018-05-03T09:54:03.326Z,1009.95
2018-05-03T09:55:03.381Z,1009.93
2018-05-03T09:56:03.351Z,1009.94
2018-05-03T09:57:03.384Z,1010.02
2018-05-03T09:58:03.373Z,1010.04
2018-05-03T09:59:03.389Z,1010.02
2018-05-03T10:00:03.419Z,1009.97
2018-05-03T10:01:03.443Z,1010.03
2018-05-03T10:02:03.437Z,1010.02
2018-05-03T10:03:03.448Z,1009.97
2018-05-03T10:04:03.727Z,1010.01
2018-05-03T10:05:03.469Z,1010.08
2018-05-03T10:06:03.482Z,1010.02
2018-05-03T10:07:03.504Z,1010.04
2018-05-03T10:08:03.506Z,1010.06
2018-05-03T10:09:03.537Z,1010.07
2018-05-03T10:10:03.571Z,1010.06
2018-05-03T10:11:03.548Z,1010.06
2018-05-03T10:12:03.584Z,1010.10
2018-05-03T10:13:03.562Z,1010.07
2018-05-03T10:14:03.582Z,1010.04
2018-05-03T10:15:03.612Z,1010.06
2018-05-03T10:16:03.591Z,1010.05
2018-05-03T10:17:03.659Z,1010.01
2018-05-03T10:18:03.632Z,1010.02
2018-05-03T10:19:03.647Z,1010.04
2018-05-03T10:20:03.647Z,1010.08
2018-05-03T10:21:03.659Z,1010.10
2018-05-03T10:22:03.798Z,1010.12
2018-05-03T10:23:03.725Z,1010.20
2018-05-03T10:24:03.700Z,1010.15
2018-05-03T10:25:03.736Z,1010.10
2018-05-03T10:26:03.722Z,1010.12
2018-05-03T10:27:03.780Z,1010.12
2018-05-03T10:28:03.749Z,1010.14
2018-05-03T10:29:03.762Z,1010.14
2018-05-03T10:30:03.798Z,1010.19
2018-05-03T10:31:03.775Z,1010.18
2018-05-03T10:32:03.814Z,1010.09
2018-05-03T10:33:03.811Z,1010.17
2018-05-03T10:34:03.839Z,1010.20
2018-05-03T10:35:03.883Z,1010.28
2018-05-03T10:36:03.954Z,1010.25
2018-05-03T10:37:03.873Z,1010.31
2018-05-03T10:38:03.947Z,1010.30
2018-05-03T10:39:03.889Z,1010.29
2018-05-03T10:40:03.917Z,1010.31
2018-05-03T10:41:04.207Z,1010.24
2018-05-03T10:42:04.095Z,1010.32
2018-05-03T10:43:03.933Z,1010.26
2018-05-03T10:44:03.947Z,1010.30
2018-05-03T10:45:03.987Z,1010.27
2018-05-03T10:46:03.978Z,1010.28
2018-05-03T10:47:03.986Z,1010.30
2018-05-03T10:48:04.000Z,1010.28
2018-05-03T10:49:04.091Z,1010.33
2018-05-03T10:50:04.050Z,1010.32
2018-05-03T10:51:04.050Z,1010.37
2018-05-03T10:52:04.040Z,1010.32
2018-05-03T10:53:04.048Z,1010.27
2018-05-03T10:54:04.131Z,1010.31
2018-05-03T10:55:04.102Z,1010.27
2018-05-03T10:56:04.116Z,1010.34
2018-05-03T10:57:04.106Z,1010.38
2018-05-03T10:58:04.114Z,1010.32
2018-05-03T10:59:04.182Z,1010.31
2018-05-03T11:00:04.137Z,1010.35
2018-05-03T11:01:04.151Z,1010.42
2018-05-03T11:02:04.181Z,1010.39
2018-05-03T11:03:04.277Z,1010.47
2018-05-03T11:04:04.224Z,1010.41
2018-05-03T11:05:04.206Z,1010.43
2018-05-03T11:06:04.311Z,1010.42
2018-05-03T11:07:04.224Z,1010.39
2018-05-03T11:08:04.272Z,1010.38
2018-05-03T11:09:04.260Z,1010.50
2018-05-03T11:10:04.301Z,1010.46
2018-05-03T11:11:04.411Z,1010.44
2018-05-03T11:12:04.329Z,1010.39
2018-05-03T11:13:04.310Z,1010.33
2018-05-03T11:14:04.364Z,1010.38
2018-05-03T11:15:04.331Z,1010.43
2018-05-03T11:16:04.347Z,1010.48
2018-05-03T11:17:04.438Z,1010.51
2018-05-03T11:18:04.423Z,1010.59
2018-05-03T11:19:04.435Z,1010.47
2018-05-03T11:20:04.413Z,1010.54
2018-05-03T11:21:04.462Z,1010.53
2018-05-03T11:22:04.423Z,1010.53
2018-05-03T11:23:04.471Z,1010.59
2018-05-03T11:24:04.445Z,1010.56
2018-05-03T11:25:04.468Z,1010.56
2018-05-03T11:26:04.531Z,1010.52
2018-05-03T11:27:04.476Z,1010.51
2018-05-03T11:28:04.508Z,1010.54
2018-05-03T11:29:04.690Z,1010.48
2018-05-03T11:30:04.523Z,1010.53
2018-05-03T11:31:04.660Z,1010.56
2018-05-03T11:32:04.551Z,1010.64
2018-05-03T11:33:04.711Z,1010.56
2018-05-03T11:34:04.580Z,1010.59
2018-05-03T11:35:04.761Z,1010.61
2018-05-03T11:36:04.605Z,1010.75
2018-05-03T11:37:04.640Z,1010.64
2018-05-03T11:38:04.639Z,1010.59
2018-05-03T11:39:04.683Z,1010.70
2018-05-03T11:40:04.681Z,1010.66
2018-05-03T11:41:04.676Z,1010.65
2018-05-03T11:42:04.672Z,1010.66
2018-05-03T11:43:04.688Z,1010.77
2018-05-03T11:44:04.841Z,1010.68
2018-05-03T11:45:04.719Z,1010.68
2018-05-03T11:46:04.723Z,1010.74
2018-05-03T11:47:04.752Z,1010.65
2018-05-03T11:48:04.760Z,1010.68
2018-05-03T11:49:04.777Z,1010.71
2018-05-03T11:50:04.811Z,1010.75
2018-05-03T11:51:04.790Z,1010.72
2018-05-03T11:52:04.830Z,1010.71
2018-05-03T11:53:04.811Z,1010.73
2018-05-03T11:54:04.824Z,1010.64
2018-05-03T11:55:04.884Z,1010.74
2018-05-03T11:56:04.861Z,1010.72
2018-05-03T11:57:04.874Z,1010.68
2018-05-03T11:58:04.884Z,1010.86
2018-05-03T11:59:04.983Z,1010.93
2018-05-03T12:00:04.941Z,1010.84
2018-05-03T12:01:04.914Z,1010.73
2018-05-03T12:02:04.953Z,1010.84
2018-05-03T12:03:04.970Z,1010.80
2018-05-03T12:04:04.968Z,1010.79
2018-05-03T12:05:04.967Z,1010.80
2018-05-03T12:06:05.017Z,1010.77